createdAt,value
2019-04-21T00:02:06.152Z,98470.00
2019-04-21T00:04:48.226Z,98461.00
2019-04-21T00:07:26.510Z,98455.00
2019-04-21T00:10:02.529Z,98460.00
2019-04-21T00:12:31.449Z,98466.00
2019-04-21T00:14:49.719Z,98459.00
2019-04-21T00:17:17.765Z,98455.00
2019-04-21T00:19:55.467Z,98454.00
2019-04-21T00:22:34.483Z,98454.00
2019-04-21T00:25:08.975Z,98446.00
2019-04-21T00:27:46.529Z,98451.00
2019-04-21T00:30:21.421Z,98441.00
2019-04-21T00:32:46.058Z,98451.00
2019-04-21T00:35:13.297Z,98436.00
2019-04-21T00:38:00.610Z,98434.00
2019-04-21T00:40:36.513Z,98422.00
2019-04-21T00:43:01.327Z,98426.00
2019-04-21T00:45:28.815Z,98439.00
2019-04-21T00:48:03.865Z,98426.00
2019-04-21T00:50:40.192Z,98422.00
2019-04-21T00:53:27.286Z,98417.00
2019-04-21T00:56:01.518Z,98410.00
2019-04-21T00:58:38.771Z,98419.00
2019-04-21T01:00:58.985Z,98411.00
2019-04-21T01:03:26.465Z,98407.00
2019-04-21T01:05:58.841Z,98409.00
2019-04-21T01:08:39.064Z,98403.00
2019-04-21T01:11:02.231Z,98405.00
2019-04-21T01:13:41.506Z,98393.00
2019-04-21T01:16:14.477Z,98396.00
2019-04-21T01:18:38.146Z,98393.00
2019-04-21T01:20:51.180Z,98390.00
2019-04-21T01:23:21.409Z,98373.00
2019-04-21T01:26:06.594Z,98378.00
2019-04-21T01:28:40.997Z,98384.00
2019-04-21T01:31:11.105Z,98380.00
2019-04-21T01:33:46.100Z,98379.00
2019-04-21T01:36:14.425Z,98380.00
2019-04-21T01:38:57.295Z,98380.00
2019-04-21T01:41:21.100Z,98372.00
2019-04-21T01:43:53.507Z,98370.00
2019-04-21T01:46:15.213Z,98364.00
2019-04-21T01:48:42.789Z,98365.00
2019-04-21T01:51:18.373Z,98374.00
2019-04-21T02:15:11.078Z,98376.00
2019-04-21T02:17:40.673Z,98360.00
2019-04-21T02:20:02.786Z,98360.00
2019-04-21T02:22:57.866Z,98363.00
2019-04-21T02:25:13.969Z,98357.00
2019-04-21T02:27:49.767Z,98350.00
2019-04-21T02:30:29.545Z,98351.00
2019-04-21T02:33:03.821Z,98359.00
2019-04-21T02:35:42.476Z,98347.00
2019-04-21T02:38:03.826Z,98350.00
2019-04-21T02:40:39.061Z,98344.00
2019-04-21T02:43:07.541Z,98334.00
2019-04-21T02:45:38.203Z,98335.00
2019-04-21T02:53:16.107Z,98335.00
2019-04-21T02:55:44.512Z,98331.00
2019-04-21T02:58:43.062Z,98323.00
2019-04-21T03:01:24.561Z,98324.00
2019-04-21T03:06:27.041Z,98312.00
2019-04-21T03:08:58.743Z,98323.00
2019-04-21T03:11:48.985Z,98318.00
2019-04-21T03:14:05.625Z,98321.00
2019-04-21T03:16:31.170Z,98310.00
2019-04-21T03:19:06.521Z,98314.00
2019-04-21T03:24:25.841Z,98302.00
2019-04-21T03:27:00.905Z,98292.00
2019-04-21T03:29:29.119Z,98296.00
2019-04-21T03:32:14.324Z,98279.00
2019-04-21T03:39:29.069Z,98288.00
2019-04-21T03:44:32.681Z,98297.00
2019-04-21T03:54:39.108Z,98284.00
2019-04-21T03:59:36.857Z,98290.00
2019-04-21T04:02:18.606Z,98288.00
2019-04-21T04:04:56.892Z,98283.00
2019-04-21T04:07:39.557Z,98270.00
2019-04-21T04:12:54.673Z,98282.00
2019-04-21T04:15:34.810Z,98281.00
2019-04-21T04:17:46.190Z,98280.00
2019-04-21T04:23:09.930Z,98286.00
2019-04-21T04:25:27.744Z,98278.00
2019-04-21T04:28:16.273Z,98272.00
2019-04-21T04:30:38.228Z,98282.00
2019-04-21T04:32:56.667Z,98283.00
2019-04-21T04:35:46.617Z,98265.00
2019-04-21T04:38:13.513Z,98274.00
2019-04-21T04:40:38.995Z,98274.00
2019-04-21T04:45:52.842Z,98267.00
2019-04-21T04:53:32.811Z,98270.00
2019-04-21T04:58:29.617Z,98273.00
2019-04-21T05:01:08.951Z,98266.00
2019-04-21T05:03:39.562Z,98263.00
2019-04-21T05:09:03.483Z,98257.00
2019-04-21T05:14:02.918Z,98269.00
2019-04-21T05:21:34.740Z,98263.00
2019-04-21T05:23:51.224Z,98256.00
2019-04-21T05:26:18.986Z,98256.00
2019-04-21T05:28:47.523Z,98260.00
2019-04-21T05:31:31.718Z,98265.00
2019-04-21T05:34:04.101Z,98265.00
2019-04-21T05:36:38.240Z,98268.00
2019-04-21T05:39:10.699Z,98247.00
2019-04-21T05:41:36.250Z,98267.00
2019-04-21T05:44:24.380Z,98257.00
2019-04-21T05:46:59.365Z,98255.00
2019-04-21T05:49:27.983Z,98249.00
2019-04-21T05:52:00.882Z,98259.00
2019-04-21T05:57:08.622Z,98254.00
2019-04-21T05:59:40.021Z,98253.00
2019-04-21T06:02:20.901Z,98252.00
2019-04-21T06:07:18.940Z,98246.00
2019-04-21T06:09:51.360Z,98250.00
2019-04-21T06:12:14.615Z,98247.00
2019-04-21T06:15:01.053Z,98248.00
2019-04-21T06:17:23.680Z,98231.00
2019-04-21T06:19:56.932Z,98239.00
2019-04-21T06:22:19.593Z,98226.00
2019-04-21T06:25:24.329Z,98239.00
2019-04-21T06:27:27.895Z,98227.00
2019-04-21T06:30:01.867Z,98227.00
2019-04-21T06:35:12.961Z,98233.00
2019-04-21T06:42:42.984Z,98235.00
2019-04-21T06:45:15.015Z,98234.00
2019-04-21T06:47:42.194Z,98222.00
2019-04-21T06:50:19.017Z,98216.00
2019-04-21T06:52:51.427Z,98218.00
2019-04-21T06:55:15.639Z,98223.00
2019-04-21T06:57:44.385Z,98208.00
2019-04-21T07:00:11.776Z,98205.00
2019-04-21T07:03:00.086Z,98208.00
2019-04-21T07:05:30.662Z,98213.00
2019-04-21T07:08:11.386Z,98208.00
2019-04-21T07:10:26.653Z,98203.00
2019-04-21T07:12:51.105Z,98206.00
2019-04-21T07:15:35.729Z,98197.00
2019-04-21T07:18:02.598Z,98195.00
2019-04-21T07:20:28.298Z,98194.00
2019-04-21T07:23:07.546Z,98189.00
2019-04-21T07:25:39.265Z,98194.00
2019-04-21T07:28:19.336Z,98185.00
2019-04-21T07:30:54.646Z,98181.00
2019-04-21T07:33:41.200Z,98185.00
2019-04-21T07:35:50.523Z,98182.00
2019-04-21T07:38:24.389Z,98177.00
2019-04-21T07:40:45.475Z,98175.00
2019-04-21T07:43:17.707Z,98168.00
2019-04-21T07:45:50.149Z,98169.00
2019-04-21T07:48:36.091Z,98161.00
2019-04-21T07:51:15.400Z,98170.00
2019-04-21T07:53:40.652Z,98165.00
2019-04-21T07:55:53.738Z,98156.00
2019-04-21T07:58:47.620Z,98159.00
2019-04-21T08:01:22.497Z,98156.00
2019-04-21T08:03:49.070Z,98161.00
2019-04-21T08:06:25.343Z,98155.00
2019-04-21T08:08:48.984Z,98157.00
2019-04-21T08:11:16.742Z,98153.00
2019-04-21T08:14:00.787Z,98143.00
2019-04-21T08:19:01.285Z,98140.00
2019-04-21T08:21:29.907Z,98136.00
2019-04-21T08:23:55.460Z,98139.00
2019-04-21T08:26:39.893Z,98139.00
2019-04-21T08:29:13.425Z,98127.00
2019-04-21T08:31:38.310Z,98128.00
2019-04-21T08:34:17.435Z,98130.00
2019-04-21T08:36:35.331Z,98111.00
2019-04-21T08:39:08.748Z,98124.00
2019-04-21T08:41:41.140Z,98112.00
2019-04-21T08:44:10.721Z,98117.00
2019-04-21T08:46:48.757Z,98124.00
2019-04-21T08:49:13.344Z,98115.00
2019-04-21T08:51:50.702Z,98110.00
2019-04-21T08:54:15.151Z,98117.00
2019-04-21T08:57:06.038Z,98108.00
2019-04-21T09:02:23.279Z,98104.00
2019-04-21T09:04:52.763Z,98103.00
2019-04-21T09:07:28.769Z,98097.00
2019-04-21T09:09:54.373Z,98092.00
2019-04-21T09:12:22.680Z,98085.00
2019-04-21T09:14:56.690Z,98089.00
2019-04-21T09:17:25.079Z,98088.00
2019-04-21T09:20:19.048Z,98080.00
2019-04-21T09:22:30.756Z,98084.00
2019-04-21T09:25:04.383Z,98085.00
2019-04-21T09:27:30.824Z,98073.00
2019-04-21T09:29:52.357Z,98066.00
2019-04-21T09:32:22.175Z,98061.00
2019-04-21T09:34:50.689Z,98071.00
2019-04-21T09:37:32.909Z,98071.00
2019-04-21T09:39:53.798Z,98073.00
2019-04-21T09:42:27.044Z,98063.00
2019-04-21T09:44:58.018Z,98067.00
2019-04-21T09:47:35.107Z,98076.00
2019-04-21T09:49:56.012Z,98069.00
2019-04-21T09:52:36.014Z,98064.00
2019-04-21T09:55:04.928Z,98051.00
2019-04-21T09:57:40.417Z,98047.00
2019-04-21T10:00:05.793Z,98047.00
2019-04-21T10:02:38.504Z,98026.00
2019-04-21T10:05:02.212Z,98041.00
2019-04-21T10:07:37.082Z,98033.00
2019-04-21T10:10:05.945Z,98035.00
2019-04-21T10:12:35.378Z,98032.00
2019-04-21T10:15:08.567Z,98036.00
2019-04-21T10:17:39.770Z,98026.00
2019-04-21T10:20:11.792Z,98022.00
2019-04-21T10:22:41.461Z,98013.00
2019-04-21T10:25:12.560Z,98016.00
2019-04-21T10:27:43.084Z,98015.00
2019-04-21T10:30:14.226Z,97999.00
2019-04-21T10:32:43.727Z,98008.00
2019-04-21T10:35:13.314Z,98007.00
2019-04-21T10:37:54.123Z,98004.00
2019-04-21T10:40:15.853Z,97995.00
2019-04-21T10:42:46.009Z,97987.00
2019-04-21T10:45:17.030Z,97986.00
2019-04-21T10:47:47.248Z,97993.00
2019-04-21T10:50:18.379Z,97985.00
2019-04-21T10:53:07.390Z,97980.00
2019-04-21T10:55:55.779Z,97979.00
2019-04-21T10:58:22.562Z,97974.00
2019-04-21T11:01:10.451Z,97971.00
2019-04-21T11:03:42.724Z,97970.00
2019-04-21T11:06:14.813Z,97972.00
2019-04-21T11:08:48.655Z,97968.00
2019-04-21T11:11:16.230Z,97972.00
2019-04-21T11:13:46.401Z,97979.00
2019-04-21T11:16:17.136Z,97968.00
2019-04-21T11:18:46.613Z,97968.00
2019-04-21T11:21:16.694Z,97952.00
2019-04-21T11:23:46.114Z,97947.00
2019-04-21T11:26:16.011Z,97940.00
2019-04-21T11:28:45.453Z,97935.00
2019-04-21T11:31:15.456Z,97937.00
2019-04-21T11:33:45.424Z,97938.00
2019-04-21T11:36:15.486Z,97941.00
2019-04-21T11:39:11.019Z,97927.00
2019-04-21T11:41:27.814Z,97937.00
2019-04-21T11:43:57.338Z,97926.00
2019-04-21T11:46:26.877Z,97915.00
2019-04-21T11:48:56.263Z,97920.00
2019-04-21T11:51:26.892Z,97919.00
2019-04-21T11:53:57.024Z,97919.00
2019-04-21T11:56:27.239Z,97913.00
2019-04-21T11:58:57.792Z,97909.00
2019-04-21T12:01:27.668Z,97908.00
2019-04-21T12:03:58.009Z,97904.00
2019-04-21T12:06:33.497Z,97900.00
2019-04-21T12:09:01.598Z,97893.00
2019-04-21T12:11:31.453Z,97907.00
2019-04-21T12:14:00.864Z,97902.00
2019-04-21T12:16:30.822Z,97893.00
2019-04-21T12:19:00.946Z,97893.00
2019-04-21T12:21:45.109Z,97883.00
2019-04-21T12:24:02.727Z,97872.00
2019-04-21T12:26:32.188Z,97874.00
2019-04-21T12:29:01.867Z,97872.00
2019-04-21T12:31:49.671Z,97886.00
2019-04-21T12:34:19.541Z,97873.00
2019-04-21T12:36:48.867Z,97866.00
2019-04-21T12:39:18.735Z,97868.00
2019-04-21T12:41:48.897Z,97867.00
2019-04-21T12:44:18.583Z,97864.00
2019-04-21T12:46:47.892Z,97862.00
2019-04-21T12:49:17.880Z,97845.00
2019-04-21T12:51:48.033Z,97856.00
2019-04-21T12:54:17.632Z,97844.00
2019-04-21T12:57:07.643Z,97851.00
2019-04-21T12:59:39.507Z,97844.00
2019-04-21T13:02:09.612Z,97835.00
2019-04-21T13:04:49.668Z,97828.00
2019-04-21T13:07:19.416Z,97825.00
2019-04-21T13:09:50.200Z,97824.00
2019-04-21T13:12:21.036Z,97818.00
2019-04-21T13:14:51.598Z,97804.00
2019-04-21T13:17:21.515Z,97809.00
2019-04-21T13:19:51.439Z,97802.00
2019-04-21T13:22:21.706Z,97797.00
2019-04-21T13:24:51.710Z,97797.00
2019-04-21T13:27:22.564Z,97784.00
2019-04-21T13:29:52.439Z,97783.00
2019-04-21T13:32:43.034Z,97796.00
2019-04-21T13:35:13.054Z,97773.00
2019-04-21T13:37:43.646Z,97774.00
2019-04-21T13:40:39.815Z,97773.00
2019-04-21T13:43:06.165Z,97767.00
2019-04-21T13:45:34.366Z,97761.00
2019-04-21T13:48:04.513Z,97767.00
2019-04-21T13:50:37.330Z,97766.00
2019-04-21T13:53:07.007Z,97767.00
2019-04-21T13:55:38.853Z,97753.00
2019-04-21T13:58:08.770Z,97747.00
2019-04-21T14:00:38.162Z,97750.00
2019-04-21T14:03:07.531Z,97750.00
2019-04-21T14:05:38.136Z,97749.00
2019-04-21T14:08:09.148Z,97751.00
2019-04-21T14:10:39.774Z,97734.00
2019-04-21T14:13:09.198Z,97744.00
2019-04-21T14:15:40.039Z,97736.00
2019-04-21T14:18:10.932Z,97729.00
2019-04-21T14:20:40.316Z,97724.00
2019-04-21T14:23:20.534Z,97723.00
2019-04-21T14:25:41.689Z,97725.00
2019-04-21T14:28:12.287Z,97721.00
2019-04-21T14:30:41.785Z,97724.00
2019-04-21T14:33:18.287Z,97710.00
2019-04-21T14:35:47.675Z,97712.00
2019-04-21T14:38:18.518Z,97712.00
2019-04-21T14:40:48.209Z,97710.00
2019-04-21T14:43:18.497Z,97698.00
2019-04-21T14:45:50.525Z,97695.00
2019-04-21T14:48:39.111Z,97692.00
2019-04-21T14:51:25.265Z,97690.00
2019-04-21T14:53:56.460Z,97686.00
2019-04-21T14:56:27.101Z,97676.00
2019-04-21T14:58:58.712Z,97678.00
2019-04-21T15:01:28.219Z,97685.00
2019-04-21T15:03:57.604Z,97672.00
2019-04-21T15:06:27.384Z,97683.00
2019-04-21T15:08:57.528Z,97674.00
2019-04-21T15:11:27.005Z,97673.00
2019-04-21T15:13:57.778Z,97672.00
2019-04-21T15:16:27.238Z,97672.00
2019-04-21T15:18:56.896Z,97660.00
2019-04-21T15:21:26.242Z,97662.00
2019-04-21T15:23:56.244Z,97668.00
2019-04-21T15:26:26.296Z,97656.00
2019-04-21T15:28:57.082Z,97658.00
2019-04-21T15:31:30.618Z,97657.00
2019-04-21T15:33:57.610Z,97654.00
2019-04-21T15:36:31.775Z,97650.00
2019-04-21T15:38:59.267Z,97645.00
2019-04-21T15:41:28.634Z,97646.00
2019-04-21T15:44:02.639Z,97636.00
2019-04-21T15:46:34.714Z,97629.00
2019-04-21T15:49:02.817Z,97634.00
2019-04-21T15:51:33.671Z,97626.00
2019-04-21T15:54:04.885Z,97634.00
2019-04-21T15:56:38.646Z,97636.00
2019-04-21T15:59:16.630Z,97637.00
2019-04-21T16:01:54.617Z,97620.00
2019-04-21T16:04:30.915Z,97630.00
2019-04-21T16:07:20.174Z,97616.00
2019-04-21T16:09:50.077Z,97615.00
2019-04-21T16:12:19.949Z,97623.00
2019-04-21T16:14:50.347Z,97612.00
2019-04-21T16:17:21.138Z,97619.00
2019-04-21T16:19:52.081Z,97619.00
2019-04-21T16:22:21.995Z,97613.00
2019-04-21T16:24:52.752Z,97615.00
2019-04-21T16:27:23.372Z,97609.00
2019-04-21T16:29:54.032Z,97612.00
2019-04-21T16:32:24.017Z,97608.00
2019-04-21T16:34:57.992Z,97594.00
2019-04-21T16:37:25.692Z,97597.00
2019-04-21T16:39:56.854Z,97595.00
2019-04-21T16:42:26.306Z,97587.00
2019-04-21T16:44:58.939Z,97592.00
2019-04-21T16:47:28.465Z,97575.00
2019-04-21T16:49:58.011Z,97581.00
2019-04-21T16:52:48.013Z,97584.00
2019-04-21T16:55:31.150Z,97584.00
2019-04-21T16:58:14.536Z,97575.00
2019-04-21T17:00:53.995Z,97579.00
2019-04-21T17:03:14.741Z,97570.00
2019-04-21T17:05:44.060Z,97567.00
2019-04-21T17:08:13.778Z,97558.00
2019-04-21T17:10:56.947Z,97561.00
2019-04-21T17:13:15.856Z,97557.00
2019-04-21T17:15:59.697Z,97565.00
2019-04-21T17:18:33.149Z,97562.00
2019-04-21T17:20:53.593Z,97550.00
2019-04-21T17:23:19.743Z,97565.00
2019-04-21T17:25:50.833Z,97551.00
2019-04-21T17:28:21.588Z,97550.00
2019-04-21T17:30:51.005Z,97557.00
2019-04-21T17:33:28.432Z,97546.00
2019-04-21T17:35:58.783Z,97547.00
2019-04-21T17:38:36.117Z,97537.00
2019-04-21T17:41:15.601Z,97533.00
2019-04-21T17:43:37.479Z,97543.00
2019-04-21T17:46:36.661Z,97543.00
2019-04-21T17:48:58.946Z,97540.00
2019-04-21T17:51:49.230Z,97542.00
2019-04-21T17:54:27.595Z,97539.00
2019-04-21T17:57:11.460Z,97551.00
2019-04-21T17:59:55.306Z,97550.00
2019-04-21T18:02:12.908Z,97545.00
2019-04-21T18:04:42.893Z,97544.00
2019-04-21T18:07:27.566Z,97548.00
2019-04-21T18:10:04.701Z,97569.00
2019-04-21T18:12:33.145Z,97559.00
2019-04-21T18:14:59.265Z,97554.00
2019-04-21T18:17:20.577Z,97565.00
2019-04-21T18:19:53.615Z,97559.00
2019-04-21T18:22:45.496Z,97566.00
2019-04-21T18:25:39.412Z,97559.00
2019-04-21T18:27:58.752Z,97564.00
2019-04-21T18:30:52.292Z,97564.00
2019-04-21T18:33:31.331Z,97557.00
2019-04-21T18:35:58.083Z,97564.00
2019-04-21T18:39:06.946Z,97560.00
2019-04-21T18:41:19.695Z,97562.00
2019-04-21T18:44:23.676Z,97568.00
2019-04-21T18:47:06.915Z,97564.00
2019-04-21T18:49:15.308Z,97568.00
2019-04-21T18:52:13.341Z,97578.00
2019-04-21T18:54:50.211Z,97579.00
2019-04-21T18:57:17.177Z,97568.00
2019-04-21T18:59:40.198Z,97593.00
2019-04-21T19:02:12.446Z,97581.00
2019-04-21T19:04:41.342Z,97583.00
2019-04-21T19:07:30.599Z,97597.00
2019-04-21T19:10:19.094Z,97592.00
2019-04-21T19:13:07.612Z,97596.00
2019-04-21T19:15:02.574Z,97587.00
2019-04-21T19:22:37.042Z,97594.00
2019-04-21T19:25:09.653Z,97597.00
2019-04-21T19:27:38.326Z,97598.00
2019-04-21T19:32:39.042Z,97612.00
2019-04-21T19:34:59.455Z,97597.00
2019-04-21T19:37:30.131Z,97594.00
2019-04-21T19:40:17.747Z,97590.00
2019-04-21T19:42:42.607Z,97601.00
2019-04-21T19:45:23.149Z,97599.00
2019-04-21T19:47:53.171Z,97603.00
2019-04-21T19:50:35.045Z,97595.00
2019-04-21T19:52:51.886Z,97600.00
2019-04-21T19:55:14.271Z,97602.00
2019-04-21T19:57:45.031Z,97595.00
2019-04-21T20:00:15.888Z,97592.00
2019-04-21T20:02:46.206Z,97596.00
2019-04-21T20:05:27.148Z,97587.00
2019-04-21T20:08:05.476Z,97591.00
2019-04-21T20:10:39.466Z,97592.00
2019-04-21T20:13:08.623Z,97588.00
2019-04-21T20:15:42.216Z,97585.00
2019-04-21T20:18:06.242Z,97592.00
2019-04-21T20:20:24.592Z,97589.00
2019-04-21T20:22:55.613Z,97585.00
2019-04-21T20:25:27.119Z,97588.00
2019-04-21T20:28:03.705Z,97591.00
2019-04-21T20:30:42.590Z,97582.00
2019-04-21T20:33:42.706Z,97584.00
2019-04-21T20:38:16.033Z,97601.00
2019-04-21T20:40:44.155Z,97599.00
2019-04-21T20:43:25.173Z,97588.00
2019-04-21T20:45:59.210Z,97588.00
2019-04-21T20:48:18.169Z,97592.00
2019-04-21T20:51:01.817Z,97591.00
2019-04-21T20:53:27.427Z,97598.00
2019-04-21T20:55:54.262Z,97602.00
2019-04-21T20:58:28.521Z,97584.00
2019-04-21T21:01:20.300Z,97591.00
2019-04-21T21:03:37.776Z,97585.00
2019-04-21T21:05:58.140Z,97582.00
2019-04-21T21:08:38.589Z,97583.00
2019-04-21T21:11:00.273Z,97584.00
2019-04-21T21:13:53.235Z,97582.00
2019-04-21T21:16:13.778Z,97581.00
2019-04-21T21:18:56.502Z,97577.00
2019-04-21T21:21:11.397Z,97578.00
2019-04-21T21:23:42.741Z,97576.00
2019-04-21T21:26:15.957Z,97588.00
2019-04-21T21:28:39.023Z,97572.00
2019-04-21T21:31:25.196Z,97574.00
2019-04-21T21:33:57.511Z,97572.00
2019-04-21T21:36:24.065Z,97580.00
2019-04-21T21:38:59.869Z,97572.00
2019-04-21T21:41:21.222Z,97577.00
2019-04-21T21:43:46.847Z,97573.00
2019-04-21T21:46:31.268Z,97566.00
2019-04-21T21:48:58.612Z,97569.00
2019-04-21T21:51:27.013Z,97575.00
2019-04-21T21:53:48.671Z,97570.00
2019-04-21T21:56:18.484Z,97569.00
2019-04-21T21:58:49.647Z,97571.00
2019-04-21T22:01:21.844Z,97570.00
2019-04-21T22:04:01.723Z,97578.00
2019-04-21T22:06:29.218Z,97568.00
2019-04-21T22:08:54.480Z,97569.00
2019-04-21T22:11:24.166Z,97570.00
2019-04-21T22:14:00.414Z,97561.00
2019-04-21T22:16:38.988Z,97564.00
2019-04-21T22:19:13.295Z,97569.00
2019-04-21T22:21:47.606Z,97563.00
2019-04-21T22:24:05.421Z,97566.00
2019-04-21T22:26:29.780Z,97570.00
2019-04-21T22:28:59.170Z,97575.00
2019-04-21T22:31:32.207Z,97575.00
2019-04-21T22:34:05.421Z,97564.00
2019-04-21T22:36:44.443Z,97565.00
2019-04-21T22:39:27.077Z,97563.00
2019-04-21T22:41:43.104Z,97568.00
2019-04-21T22:44:12.673Z,97567.00
2019-04-21T22:46:54.851Z,97554.00
2019-04-21T22:49:15.016Z,97552.00
2019-04-21T22:51:49.656Z,97558.00
2019-04-21T22:54:20.784Z,97561.00
2019-04-21T22:56:56.604Z,97548.00
2019-04-21T22:59:21.048Z,97548.00
2019-04-21T23:01:51.881Z,97549.00
2019-04-21T23:04:21.089Z,97561.00
2019-04-21T23:06:59.283Z,97560.00
2019-04-21T23:09:22.556Z,97556.00
2019-04-21T23:11:56.066Z,97549.00
2019-04-21T23:14:23.898Z,97543.00
2019-04-21T23:16:56.882Z,97551.00
2019-04-21T23:19:38.948Z,97532.00
2019-04-21T23:22:14.381Z,97526.00
2019-04-21T23:24:45.665Z,97537.00
2019-04-21T23:27:11.813Z,97533.00
2019-04-21T23:30:07.759Z,97535.00
2019-04-21T23:32:17.258Z,97530.00
2019-04-21T23:34:36.365Z,97522.00
2019-04-21T23:37:12.217Z,97534.00
2019-04-21T23:39:37.331Z,97536.00
2019-04-21T23:42:06.391Z,97524.00
2019-04-21T23:44:41.566Z,97533.00
2019-04-21T23:47:10.579Z,97527.00
2019-04-21T23:49:49.498Z,97520.00
2019-04-21T23:52:12.640Z,97520.00
2019-04-21T23:54:41.072Z,97522.00
2019-04-21T23:57:19.997Z,97502.00
2019-04-21T23:59:47.182Z,97517.00
